Millenium Air

Millenium Air Since 1998



 METAR AND TAF INFORMATION
METAR FOR SCMK
ADDS - METARS form results

(2245 UTC 05 July 2020)
Data provider http://aviationweather.gov/metar/data/
 
METAR text: SCMK 052200Z AUTO 04004KT 270V080 //// // FEW043/// BKN052/// OVC073/// 06/05 Q1021
Conditions at: SCMK (MELINKA ARPT , CL) observed 2200 UTC 05 July 2020
Temperature: 6.0°C (43°F)
Dewpoint: 5.0°C (41°F) [RH = 93%]
Pressure (altimeter): 30.15 inches Hg (1021.0 mb)
Winds: from the NE (40 degrees) at 5 MPH (4 knots; 2.1 m/s)
Visibility: missing
Ceiling: 5200 feet AGL
Clouds: few clouds at 4300 feet AGL
broken clouds at 5200 feet AGL
overcast cloud deck at 7300 feet AGL
Weather: no significant weather observed at this time

 AIRPORT MAP

 RUNWAY INFORMATION
Runway 18 Runway length 2625 ft Runway width 59 ft
Runway elevation 0 ft Runway displaced threshold 0 ft Runway heading 0
Runway 36 Runway length 2625 ft Runway width 59 ft
Runway elevation 0 ft Runway displaced threshold 0 ft Runway heading 0

 AIRPORT FREQUENCIES

 AIRPORT NEAR NAVIGATION AIDS